Macomb, MI (48044)

1:55 PM EDT on July 28, 2016 (GMT -0400)
Valley Forge Subdivision | | Change Station

Elev 620 ft 42.65 °N, 82.95 °W | Updated 7 seconds ago

Overcast
Overcast
84.2 °F
Feels Like 85 °F
N
4.0
Wind Variable Wind from North
Gusts 5.1 mph

Today
High -- | Low -- °F
--% Chance of Precip.
Yesterday
High -- | Low -- °F
Precip. -- in
Pressure 29.90 in
Visibility 10.0 miles
Clouds Few 6000 ft
Few 16000 ft
Mostly Cloudy 20000 ft
Overcast 30000 ft
Heat Index 85 °F
Dew Point 64 °F
Humidity 50%
Rainfall 0.02 in
Snow Depth Not available.
6:19 AM 8:55 PM
Waning Crescent, 30% visible
METAR KMTC 281558Z 01007KT 10SM FEW060 FEW160 BKN200 OVC300 26/20 A2990 RMK AO2A SLP125 T02620201
Pressure 29.90 in
Visibility 10.0 miles
Clouds Few 6000 ft
Few 16000 ft
Mostly Cloudy 20000 ft
Overcast 30000 ft
Heat Index 85 °F
Dew Point 64 °F
Humidity 50%
Rainfall 0.02 in
Snow Depth Not available.
6:19 AM 8:55 PM
Waning Crescent, 30% visible
METAR KMTC 281558Z 01007KT 10SM FEW060 FEW160 BKN200 OVC300 26/20 A2990 RMK AO2A SLP125 T02620201

10-Day Weather Forecast

Almanac

Astronomy

Jul. 28, 2016 Rise Set
Actual Time
Civil Twilight
Nautical Twilight
Astronomical Twilight
Moon
Length of Visible Light
Length of Day
Tomorrow will be .
, % of the Moon is Illuminated

Today's Extremes

State Highs State Lows

Community

WunderPhotos

Upload Photos

1,928,163 photos uploaded!

WunderBlog® & News

Nearby

Air Quality

  Air Quality AQ Index Pollutant
Not available.

Snow Depth

Station Depth Elevation

Earthquake Activity

City Distance Mag. Time & Date
Minimum magnitude displayed is 2.5.

Coastal Water Temperatures

Place Temperature

Stations

Nearby Weather Stations

Station Location Temp. Windchill Dew Point Humidity Wind Precip. Elev Updated Type
                   

Watches & Warnings

There are currently no watches in effect.